createdAt,value
2018-06-24T00:00:59.144Z,511
2018-06-24T00:02:07.037Z,510
2018-06-24T00:03:14.244Z,510
2018-06-24T00:04:22.163Z,511
2018-06-24T00:05:30.045Z,511
2018-06-24T00:06:37.250Z,512
2018-06-24T00:07:45.134Z,512
2018-06-24T00:08:53.030Z,512
2018-06-24T00:10:00.911Z,512
2018-06-24T00:11:08.793Z,512
2018-06-24T00:12:15.996Z,512
2018-06-24T00:13:23.877Z,511
2018-06-24T00:14:31.760Z,510
2018-06-24T00:15:38.687Z,511
2018-06-24T00:16:46.582Z,510
2018-06-24T00:17:54.485Z,509
2018-06-24T00:19:02.405Z,508
2018-06-24T00:20:10.279Z,508
2018-06-24T00:21:18.157Z,508
2018-06-24T00:22:26.046Z,507
2018-06-24T00:23:33.948Z,507
2018-06-24T00:24:41.855Z,507
2018-06-24T00:25:49.738Z,506
2018-06-24T00:26:57.636Z,507
2018-06-24T00:28:05.513Z,507
2018-06-24T00:29:13.128Z,507
2018-06-24T00:30:20.759Z,507
2018-06-24T00:31:28.362Z,507
2018-06-24T00:32:36.245Z,507
2018-06-24T00:33:44.131Z,507
2018-06-24T00:34:51.739Z,507
2018-06-24T00:35:59.621Z,508
2018-06-24T00:37:07.660Z,508
2018-06-24T00:38:15.818Z,508
2018-06-24T00:39:23.110Z,508
2018-06-24T00:40:31.011Z,507
2018-06-24T00:41:38.929Z,508
2018-06-24T00:42:46.169Z,508
2018-06-24T00:43:54.056Z,507
2018-06-24T00:45:01.677Z,508
2018-06-24T00:46:09.571Z,505
2018-06-24T00:47:16.767Z,502
2018-06-24T00:48:24.655Z,500
2018-06-24T00:49:32.258Z,498
2018-06-24T00:50:39.186Z,497
2018-06-24T00:51:46.391Z,495
2018-06-24T00:52:54.298Z,493
2018-06-24T00:54:01.503Z,492
2018-06-24T00:55:09.391Z,491
2018-06-24T00:56:17.277Z,487
2018-06-24T00:57:25.156Z,486
2018-06-24T00:58:33.040Z,485
2018-06-24T00:59:40.243Z,483
2018-06-24T01:00:48.139Z,483
2018-06-24T01:01:56.024Z,483
2018-06-24T01:03:03.908Z,482
2018-06-24T01:04:11.109Z,484
2018-06-24T01:05:19.021Z,483
2018-06-24T01:06:26.229Z,483
2018-06-24T01:07:33.839Z,483
2018-06-24T01:08:41.725Z,483
2018-06-24T01:09:49.620Z,483
2018-06-24T01:10:56.568Z,483
2018-06-24T01:12:04.448Z,483
2018-06-24T01:13:12.054Z,483
2018-06-24T01:14:19.938Z,483
2018-06-24T01:15:28.145Z,483
2018-06-24T01:16:36.031Z,482
2018-06-24T01:17:43.918Z,482
2018-06-24T01:18:51.524Z,481
2018-06-24T01:19:58.743Z,480
2018-06-24T01:21:06.622Z,480
2018-06-24T01:22:14.504Z,479
2018-06-24T01:23:22.111Z,479
2018-06-24T01:24:29.991Z,477
2018-06-24T01:25:37.194Z,477
2018-06-24T01:26:44.525Z,475
2018-06-24T01:27:52.145Z,475
2018-06-24T01:29:00.029Z,475
2018-06-24T01:30:07.912Z,474
2018-06-24T01:31:15.799Z,474
2018-06-24T01:32:23.681Z,473
2018-06-24T01:33:30.885Z,473
2018-06-24T01:34:38.764Z,472
2018-06-24T01:35:46.596Z,473
2018-06-24T01:36:53.789Z,473
2018-06-24T01:38:01.677Z,473
2018-06-24T01:39:09.555Z,473
2018-06-24T01:40:17.445Z,474
2018-06-24T01:41:26.022Z,475
2018-06-24T01:42:33.641Z,475
2018-06-24T01:43:41.542Z,476
2018-06-24T01:44:48.746Z,477
2018-06-24T01:45:56.631Z,478
2018-06-24T01:47:04.511Z,478
2018-06-24T01:48:12.408Z,478
2018-06-24T01:49:20.329Z,480
2018-06-24T01:50:27.250Z,481
2018-06-24T01:51:34.859Z,481
2018-06-24T01:52:42.759Z,483
2018-06-24T01:53:50.648Z,482
2018-06-24T01:54:58.530Z,482
2018-06-24T01:56:06.155Z,482
2018-06-24T01:57:13.765Z,482
2018-06-24T01:58:20.965Z,483
2018-06-24T01:59:28.860Z,483
2018-06-24T02:00:36.782Z,484
2018-06-24T02:01:44.343Z,484
2018-06-24T02:02:52.436Z,481
2018-06-24T02:04:00.048Z,480
2018-06-24T02:05:07.930Z,480
2018-06-24T02:06:15.812Z,480
2018-06-24T02:07:23.017Z,478
2018-06-24T02:08:30.900Z,477
2018-06-24T02:09:38.788Z,475
2018-06-24T02:10:46.673Z,474
2018-06-24T02:11:53.605Z,473
2018-06-24T02:13:01.489Z,474
2018-06-24T02:14:09.373Z,473
2018-06-24T02:15:17.255Z,475
2018-06-24T02:16:24.864Z,475
2018-06-24T02:17:32.765Z,476
2018-06-24T02:18:39.973Z,477
2018-06-24T02:19:47.851Z,478
2018-06-24T02:20:55.742Z,480
2018-06-24T02:22:03.617Z,481
2018-06-24T02:23:11.495Z,481
2018-06-24T02:24:19.378Z,483
2018-06-24T02:25:27.271Z,485
2018-06-24T02:26:34.878Z,486
2018-06-24T02:27:42.493Z,487
2018-06-24T02:28:50.378Z,487
2018-06-24T02:29:58.272Z,487
2018-06-24T02:31:05.489Z,489
2018-06-24T02:32:13.385Z,488
2018-06-24T02:33:21.257Z,488
2018-06-24T02:34:29.139Z,487
2018-06-24T02:35:37.028Z,488
2018-06-24T02:36:44.919Z,488
2018-06-24T02:37:52.807Z,488
2018-06-24T02:39:00.408Z,489
2018-06-24T02:40:07.711Z,487
2018-06-24T02:41:15.608Z,489
2018-06-24T02:42:22.923Z,488
2018-06-24T02:43:30.820Z,489
2018-06-24T02:44:38.701Z,488
2018-06-24T02:45:46.584Z,488
2018-06-24T02:46:54.466Z,487
2018-06-24T02:48:02.367Z,487
2018-06-24T02:49:09.961Z,487
2018-06-24T02:50:17.848Z,486
2018-06-24T02:51:25.729Z,487
2018-06-24T02:52:33.610Z,486
2018-06-24T02:53:41.776Z,486
2018-06-24T02:54:49.715Z,485
2018-06-24T02:55:57.597Z,487
2018-06-24T02:57:05.477Z,486
2018-06-24T02:58:13.384Z,485
2018-06-24T02:59:21.267Z,486
2018-06-24T03:00:29.151Z,486
2018-06-24T03:01:37.027Z,486
2018-06-24T03:02:44.911Z,487
2018-06-24T03:03:52.789Z,488
2018-06-24T03:04:59.989Z,489
2018-06-24T03:06:07.876Z,489
2018-06-24T03:07:15.761Z,489
2018-06-24T03:08:23.634Z,491
2018-06-24T03:09:30.287Z,490
2018-06-24T03:10:38.164Z,495
2018-06-24T03:11:46.046Z,496
2018-06-24T03:12:53.930Z,496
2018-06-24T03:14:01.551Z,497
2018-06-24T03:15:09.424Z,497
2018-06-24T03:16:17.303Z,497
2018-06-24T03:17:25.190Z,497
2018-06-24T03:18:33.074Z,496
2018-06-24T03:19:40.964Z,496
2018-06-24T03:20:48.896Z,496
2018-06-24T03:21:56.769Z,496
2018-06-24T03:23:04.369Z,496
2018-06-24T03:24:12.256Z,496
2018-06-24T03:25:20.142Z,497
2018-06-24T03:26:28.029Z,497
2018-06-24T03:27:35.917Z,497
2018-06-24T03:28:43.800Z,498
2018-06-24T03:29:51.129Z,498
2018-06-24T03:30:59.021Z,498
2018-06-24T03:32:06.629Z,498
2018-06-24T03:33:14.515Z,498
2018-06-24T03:34:22.401Z,498
2018-06-24T03:35:30.039Z,500
2018-06-24T03:36:37.930Z,500
2018-06-24T03:37:45.829Z,500
2018-06-24T03:38:53.720Z,500
2018-06-24T03:40:01.620Z,501
2018-06-24T03:41:09.214Z,501
2018-06-24T03:42:17.099Z,502
2018-06-24T03:43:24.996Z,502
2018-06-24T03:44:32.894Z,502
2018-06-24T03:45:40.770Z,502
2018-06-24T03:46:48.650Z,503
2018-06-24T03:47:56.536Z,503
2018-06-24T03:49:04.417Z,502
2018-06-24T03:50:11.625Z,503
2018-06-24T03:51:19.508Z,502
2018-06-24T03:52:27.395Z,504
2018-06-24T03:53:35.276Z,503
2018-06-24T03:54:43.163Z,503
2018-06-24T03:55:51.045Z,503
2018-06-24T03:56:58.926Z,503
2018-06-24T03:58:07.086Z,504
2018-06-24T03:59:15.094Z,505
2018-06-24T04:00:22.022Z,504
2018-06-24T04:01:29.905Z,504
2018-06-24T04:02:37.823Z,504
2018-06-24T04:03:45.712Z,504
2018-06-24T04:04:53.082Z,504
2018-06-24T04:06:00.688Z,504
2018-06-24T04:07:08.580Z,506
2018-06-24T04:08:16.198Z,505
2018-06-24T04:09:24.083Z,506
2018-06-24T04:10:31.973Z,506
2018-06-24T04:11:39.870Z,505
2018-06-24T04:12:47.966Z,506
2018-06-24T04:13:55.890Z,506
2018-06-24T04:15:03.802Z,506
2018-06-24T04:16:11.422Z,507
2018-06-24T04:17:19.305Z,506
2018-06-24T04:18:27.295Z,506
2018-06-24T04:19:35.302Z,506
2018-06-24T04:20:43.184Z,506
2018-06-24T04:21:50.518Z,506
2018-06-24T22:00:06.539Z,527
2018-06-24T22:01:14.146Z,525
2018-06-24T22:02:21.371Z,525
2018-06-24T22:03:29.255Z,525
2018-06-24T22:04:36.460Z,525
2018-06-24T22:05:44.343Z,525
2018-06-24T22:06:51.548Z,524
2018-06-24T22:07:59.443Z,525
2018-06-24T22:09:06.650Z,524
2018-06-24T22:10:14.535Z,524
2018-06-24T22:11:21.743Z,524
2018-06-24T22:12:29.371Z,524
2018-06-24T22:13:36.576Z,523
2018-06-24T22:14:44.459Z,524
2018-06-24T22:15:51.661Z,523
2018-06-24T22:16:59.281Z,523
2018-06-24T22:18:06.489Z,523
2018-06-24T22:19:14.376Z,523
2018-06-24T22:20:22.264Z,522
2018-06-24T22:21:29.490Z,522
2018-06-24T22:22:37.379Z,522
2018-06-24T22:23:44.590Z,522
2018-06-24T22:24:52.472Z,522
2018-06-24T22:25:59.675Z,522
2018-06-24T22:27:08.001Z,522
2018-06-24T22:28:15.233Z,522
2018-06-24T22:29:23.118Z,523
2018-06-24T22:30:31.007Z,523
2018-06-24T22:31:38.215Z,523
2018-06-24T22:32:46.109Z,523
2018-06-24T22:33:53.315Z,523
2018-06-24T22:35:01.202Z,523
2018-06-24T22:36:08.418Z,523
2018-06-24T22:37:16.314Z,522
2018-06-24T22:38:23.588Z,523
2018-06-24T22:39:31.524Z,523
2018-06-24T22:40:38.755Z,523
2018-06-24T22:41:46.368Z,523
2018-06-24T22:42:54.252Z,523
2018-06-24T22:44:01.491Z,523
2018-06-24T22:45:09.367Z,522
2018-06-24T22:46:16.574Z,523
2018-06-24T22:47:24.461Z,523
2018-06-24T22:48:31.663Z,523
2018-06-24T22:49:39.552Z,523
2018-06-24T22:50:47.441Z,523
2018-06-24T22:51:55.345Z,523
2018-06-24T22:53:03.446Z,523
2018-06-24T22:54:11.336Z,523
2018-06-24T22:55:19.225Z,523
2018-06-24T22:56:27.106Z,523
2018-06-24T22:57:34.312Z,523
2018-06-24T22:58:42.218Z,523
2018-06-24T22:59:49.154Z,523
2018-06-24T23:00:56.404Z,524
2018-06-24T23:02:04.303Z,523
2018-06-24T23:03:11.527Z,523
2018-06-24T23:04:19.151Z,523
2018-06-24T23:05:26.367Z,524
2018-06-24T23:06:33.576Z,523
2018-06-24T23:07:40.779Z,523
2018-06-24T23:08:47.989Z,523
2018-06-24T23:09:55.619Z,523
2018-06-24T23:11:03.507Z,523
2018-06-24T23:12:10.706Z,524
2018-06-24T23:13:17.911Z,524
2018-06-24T23:14:25.809Z,524
2018-06-24T23:15:33.698Z,524
2018-06-24T23:16:41.590Z,524
2018-06-24T23:17:49.206Z,524
2018-06-24T23:18:57.105Z,525
2018-06-24T23:20:04.309Z,524
2018-06-24T23:21:12.193Z,524
2018-06-24T23:22:19.426Z,524
2018-06-24T23:23:27.311Z,524
2018-06-24T23:24:34.924Z,524
2018-06-24T23:25:41.848Z,525
2018-06-24T23:26:49.739Z,524
2018-06-24T23:27:57.644Z,524
2018-06-24T23:29:05.541Z,524
2018-06-24T23:30:13.441Z,524
2018-06-24T23:31:21.331Z,524
2018-06-24T23:32:28.966Z,524
2018-06-24T23:33:36.180Z,523
2018-06-24T23:34:44.067Z,524
2018-06-24T23:35:51.271Z,524
2018-06-24T23:36:58.886Z,523
2018-06-24T23:38:06.093Z,523
2018-06-24T23:39:13.308Z,524
2018-06-24T23:40:21.193Z,524
2018-06-24T23:41:29.080Z,524
2018-06-24T23:42:36.969Z,524
2018-06-24T23:43:44.856Z,524
2018-06-24T23:44:52.742Z,524
2018-06-24T23:46:00.630Z,525
2018-06-24T23:48:22.202Z,525
2018-06-24T23:49:29.438Z,524
2018-06-24T23:50:37.326Z,525
2018-06-24T23:51:45.213Z,525
2018-06-24T23:52:53.098Z,525
2018-06-24T23:54:00.980Z,526
2018-06-24T23:55:08.869Z,524
2018-06-24T23:56:16.494Z,525
2018-06-24T23:57:24.109Z,525
2018-06-24T23:58:32.015Z,525
2018-06-24T23:59:39.903Z,525
